createdAt,value
2023-01-29T00:00:32.002Z,29.45
2023-01-29T00:01:31.991Z,29.46
2023-01-29T00:02:31.959Z,30.88
2023-01-29T00:03:31.957Z,31.58
2023-01-29T00:04:31.937Z,28.39
2023-01-29T00:05:31.928Z,31.04
2023-01-29T00:06:31.923Z,29.27
2023-01-29T00:07:31.952Z,29.55
2023-01-29T00:08:31.898Z,28.89
2023-01-29T00:09:31.906Z,28.77
2023-01-29T00:10:31.925Z,25.77
2023-01-29T00:11:31.911Z,30.43
2023-01-29T00:12:31.863Z,25.00
2023-01-29T00:13:31.882Z,28.79
2023-01-29T00:14:31.888Z,29.67
2023-01-29T00:15:31.840Z,29.00
2023-01-29T00:16:31.849Z,30.16
2023-01-29T00:17:31.858Z,29.31
2023-01-29T00:18:31.882Z,28.39
2023-01-29T00:19:31.836Z,28.33
2023-01-29T00:20:31.835Z,27.95
2023-01-29T00:21:31.839Z,25.96
2023-01-29T00:22:31.940Z,29.83
2023-01-29T00:23:31.837Z,29.26
2023-01-29T00:24:31.824Z,28.77
2023-01-29T00:25:31.823Z,27.97
2023-01-29T00:26:31.828Z,29.60
2023-01-29T00:27:31.787Z,27.41
2023-01-29T00:28:31.835Z,28.20
2023-01-29T00:29:31.844Z,25.48
2023-01-29T00:30:31.856Z,29.67
2023-01-29T00:31:31.987Z,25.62
2023-01-29T00:32:31.896Z,30.07
2023-01-29T00:33:31.952Z,29.52
2023-01-29T00:34:31.942Z,28.01
2023-01-29T00:35:31.961Z,26.85
2023-01-29T00:36:31.967Z,27.88
2023-01-29T00:37:31.997Z,28.35
2023-01-29T00:38:32.054Z,28.35
2023-01-29T00:39:46.762Z,26.18
2023-01-29T00:40:33.035Z,26.46
2023-01-29T00:41:32.058Z,26.88
2023-01-29T00:42:32.046Z,27.01
2023-01-29T00:43:32.042Z,30.57
2023-01-29T00:44:32.053Z,28.86
2023-01-29T00:45:32.029Z,27.17
2023-01-29T00:46:32.048Z,27.36
2023-01-29T00:47:32.012Z,27.78
2023-01-29T00:48:32.021Z,27.94
2023-01-29T00:49:31.985Z,28.57
2023-01-29T00:50:31.960Z,27.92
2023-01-29T00:51:31.940Z,28.58
2023-01-29T00:52:31.997Z,26.90
2023-01-29T00:53:31.938Z,28.18
2023-01-29T00:54:33.143Z,27.98
2023-01-29T00:55:31.942Z,25.35
2023-01-29T00:56:31.935Z,31.50
2023-01-29T00:57:31.924Z,30.64
2023-01-29T00:58:31.955Z,25.84
2023-01-29T00:59:31.927Z,29.15
2023-01-29T01:00:32.025Z,32.36
2023-01-29T01:01:31.911Z,27.35
2023-01-29T01:02:31.919Z,26.72
2023-01-29T01:03:31.925Z,30.08
2023-01-29T01:04:34.104Z,29.84
2023-01-29T01:05:31.928Z,29.56
2023-01-29T01:06:31.948Z,28.89
2023-01-29T01:07:31.951Z,28.29
2023-01-29T01:08:31.922Z,27.11
2023-01-29T01:09:31.953Z,30.79
2023-01-29T01:10:31.914Z,26.28
2023-01-29T01:11:31.928Z,29.75
2023-01-29T01:12:31.925Z,29.06
2023-01-29T01:13:31.942Z,26.77
2023-01-29T01:14:31.877Z,31.26
2023-01-29T01:15:31.895Z,30.34
2023-01-29T01:16:31.940Z,28.60
2023-01-29T01:17:31.871Z,29.55
2023-01-29T01:18:31.872Z,27.46
2023-01-29T01:19:31.866Z,26.07
2023-01-29T01:20:31.836Z,25.72
2023-01-29T01:21:31.859Z,26.60
2023-01-29T01:22:31.847Z,25.34
2023-01-29T01:23:31.841Z,28.17
2023-01-29T01:24:31.864Z,31.13
2023-01-29T01:25:31.804Z,27.02
2023-01-29T01:26:31.810Z,27.48
2023-01-29T01:27:31.786Z,28.82
2023-01-29T01:28:31.790Z,29.51
2023-01-29T01:29:31.792Z,26.85
2023-01-29T01:30:31.790Z,26.03
2023-01-29T01:31:31.825Z,27.76
2023-01-29T01:32:31.805Z,26.24
2023-01-29T01:33:31.755Z,35.03
2023-01-29T01:34:31.759Z,31.32
2023-01-29T01:35:31.743Z,29.29
2023-01-29T01:36:31.736Z,28.24
2023-01-29T01:37:31.731Z,28.94
2023-01-29T01:38:31.733Z,29.02
2023-01-29T01:39:31.748Z,29.04
2023-01-29T01:40:31.709Z,26.59
2023-01-29T01:41:31.728Z,28.21
2023-01-29T01:42:32.075Z,32.06
2023-01-29T01:43:31.723Z,26.32
2023-01-29T01:44:31.702Z,30.19
2023-01-29T02:56:31.181Z,30.07
2023-01-29T02:57:31.230Z,28.76
2023-01-29T02:58:31.195Z,29.47
2023-01-29T02:59:31.183Z,28.13
2023-01-29T03:00:31.200Z,28.33
2023-01-29T03:01:31.133Z,30.04
2023-01-29T03:02:31.261Z,29.47
2023-01-29T03:03:31.121Z,27.05
2023-01-29T03:04:31.174Z,30.51
2023-01-29T03:05:31.157Z,26.25
2023-01-29T03:06:31.155Z,26.76
2023-01-29T03:07:31.158Z,28.87
2023-01-29T03:08:31.166Z,30.29
2023-01-29T03:09:31.123Z,27.44
2023-01-29T03:10:31.111Z,28.93
2023-01-29T03:11:31.126Z,29.26
2023-01-29T03:12:31.121Z,26.88
2023-01-29T03:13:31.159Z,32.03
2023-01-29T03:14:31.133Z,31.05
2023-01-29T03:15:31.182Z,27.16
2023-01-29T03:16:31.286Z,31.34
2023-01-29T03:17:31.223Z,31.19
2023-01-29T03:18:31.191Z,32.48
2023-01-29T03:19:31.200Z,28.83
2023-01-29T03:20:31.224Z,29.18
2023-01-29T03:21:31.286Z,27.18
2023-01-29T03:50:31.652Z,28.97
2023-01-29T03:55:31.716Z,29.16
2023-01-29T03:56:31.748Z,27.14
2023-01-29T03:57:31.741Z,26.99
2023-01-29T03:58:31.732Z,28.15
2023-01-29T03:59:31.750Z,30.29
2023-01-29T04:00:31.797Z,29.15
2023-01-29T04:01:31.834Z,26.13
2023-01-29T04:02:31.797Z,27.17
2023-01-29T04:03:31.847Z,30.52
2023-01-29T04:04:31.840Z,30.56
2023-01-29T04:05:31.862Z,26.82
2023-01-29T04:06:31.858Z,28.88
2023-01-29T04:07:31.890Z,29.53
2023-01-29T04:08:31.933Z,29.02
2023-01-29T04:09:31.903Z,30.16
2023-01-29T04:10:31.920Z,26.69
2023-01-29T04:11:31.910Z,28.02
2023-01-29T04:12:31.932Z,26.40
2023-01-29T04:13:31.968Z,26.64
2023-01-29T04:14:32.008Z,29.52
2023-01-29T04:15:31.969Z,28.42
2023-01-29T04:16:32.035Z,33.14
2023-01-29T04:17:32.031Z,28.00
2023-01-29T04:18:32.016Z,30.83
2023-01-29T04:19:32.052Z,26.93
2023-01-29T04:20:32.093Z,27.12
2023-01-29T04:21:32.104Z,28.86
2023-01-29T04:22:32.099Z,29.13
2023-01-29T04:23:32.118Z,28.34
2023-01-29T04:24:32.122Z,33.19
2023-01-29T04:25:32.168Z,29.30
2023-01-29T04:26:32.189Z,29.31
2023-01-29T04:27:32.190Z,27.99
2023-01-29T04:28:32.186Z,31.31
2023-01-29T04:29:32.216Z,25.22
2023-01-29T04:30:32.199Z,30.71
2023-01-29T04:31:32.346Z,30.08
2023-01-29T04:32:32.298Z,27.98
2023-01-29T04:33:32.293Z,28.35
2023-01-29T04:34:32.303Z,30.03
2023-01-29T04:35:32.304Z,25.91
2023-01-29T04:36:32.376Z,29.38
2023-01-29T04:37:32.346Z,29.62
2023-01-29T04:38:32.377Z,30.45
2023-01-29T04:39:32.388Z,30.99
2023-01-29T04:40:32.401Z,28.72
2023-01-29T04:41:32.422Z,28.10
2023-01-29T04:42:32.437Z,27.41
2023-01-29T04:43:32.450Z,29.54
2023-01-29T04:44:32.453Z,28.18
2023-01-29T04:45:32.536Z,27.75
2023-01-29T04:46:32.516Z,26.21
2023-01-29T04:47:32.646Z,28.06
2023-01-29T04:48:32.549Z,26.05
2023-01-29T04:49:32.559Z,27.18
2023-01-29T04:50:32.634Z,29.43
2023-01-29T04:51:32.597Z,25.17
2023-01-29T04:52:32.643Z,29.77
2023-01-29T04:53:32.617Z,27.25
2023-01-29T04:54:32.658Z,27.02
2023-01-29T04:55:32.654Z,31.96
2023-01-29T04:57:32.675Z,31.89
2023-01-29T11:37:41.719Z,56.80
2023-01-29T11:38:41.771Z,56.50
2023-01-29T11:39:41.751Z,54.95
2023-01-29T11:40:41.760Z,57.09
2023-01-29T11:41:41.809Z,56.80
2023-01-29T11:42:41.800Z,59.60
2023-01-29T11:43:41.836Z,59.49
2023-01-29T11:44:41.850Z,58.90
2023-01-29T11:45:41.882Z,56.37
2023-01-29T11:46:41.910Z,59.10
2023-01-29T11:47:41.882Z,56.72
2023-01-29T11:48:41.925Z,54.11
2023-01-29T11:49:41.923Z,53.00
2023-01-29T11:50:41.950Z,52.69
2023-01-29T11:51:41.972Z,54.88
2023-01-29T11:52:41.984Z,54.02
2023-01-29T11:53:42.073Z,55.74
2023-01-29T11:54:42.016Z,53.51
2023-01-29T11:55:50.607Z,53.10
2023-01-29T11:56:43.029Z,53.33
2023-01-29T11:57:41.989Z,53.28
2023-01-29T11:58:42.008Z,53.19
2023-01-29T11:59:42.014Z,51.99
2023-01-29T12:00:41.977Z,53.58
2023-01-29T12:01:41.974Z,52.17
2023-01-29T12:02:42.057Z,52.60
2023-01-29T12:03:42.000Z,51.50
2023-01-29T12:04:41.959Z,51.47
2023-01-29T12:05:42.022Z,49.30
2023-01-29T12:06:41.941Z,49.22
2023-01-29T12:07:41.932Z,52.78
2023-01-29T12:08:41.950Z,51.79
2023-01-29T12:09:41.941Z,50.43
2023-01-29T12:10:41.930Z,48.80
2023-01-29T12:11:41.936Z,49.63
2023-01-29T12:12:41.915Z,50.54
2023-01-29T12:13:41.913Z,49.34
2023-01-29T12:14:41.895Z,48.79
2023-01-29T12:15:41.896Z,49.84
2023-01-29T12:16:41.886Z,50.86
2023-01-29T12:17:41.871Z,49.49
2023-01-29T12:18:41.874Z,48.81
2023-01-29T12:19:41.882Z,50.25
2023-01-29T12:20:41.848Z,49.53
2023-01-29T12:21:41.883Z,48.39
2023-01-29T12:22:41.833Z,47.69
2023-01-29T12:23:41.875Z,45.99
2023-01-29T12:24:41.845Z,46.28
2023-01-29T12:25:41.877Z,46.12
2023-01-29T12:26:41.934Z,45.72
2023-01-29T12:27:42.050Z,47.51
2023-01-29T12:28:41.936Z,44.78
2023-01-29T12:29:41.984Z,44.15
2023-01-29T12:37:42.213Z,42.52
2023-01-29T12:39:42.256Z,39.70
2023-01-29T12:40:42.264Z,40.85
2023-01-29T12:41:43.618Z,41.63
2023-01-29T12:42:42.311Z,42.53
2023-01-29T12:43:42.321Z,42.25
2023-01-29T12:44:42.369Z,41.55
2023-01-29T12:45:42.398Z,40.24
2023-01-29T12:46:42.440Z,39.48
2023-01-29T12:47:42.419Z,40.06
2023-01-29T12:48:42.464Z,39.73
2023-01-29T12:49:42.522Z,38.47
2023-01-29T12:50:42.547Z,36.90
2023-01-29T12:51:42.545Z,38.26
2023-01-29T12:52:42.582Z,39.32
2023-01-29T12:53:42.641Z,36.42
2023-01-29T12:54:42.671Z,36.84
2023-01-29T12:55:42.683Z,35.98
2023-01-29T12:56:42.720Z,37.55
2023-01-29T12:57:42.767Z,35.12
2023-01-29T12:58:42.797Z,34.61
2023-01-29T12:59:42.840Z,32.78
2023-01-29T13:05:43.050Z,31.28
2023-01-29T13:11:43.294Z,27.66
2023-01-29T13:12:43.328Z,29.08
2023-01-29T13:13:43.417Z,27.65
2023-01-29T13:14:43.448Z,25.00
2023-01-29T13:15:43.610Z,28.46
2023-01-29T13:16:43.603Z,27.93
2023-01-29T13:17:43.653Z,25.53
2023-01-29T13:18:43.652Z,27.90
2023-01-29T13:19:43.705Z,26.19
2023-01-29T13:20:43.776Z,25.00
2023-01-29T13:25:44.007Z,27.77
2023-01-29T17:09:51.727Z,27.86
2023-01-29T17:10:51.732Z,30.34
2023-01-29T17:11:51.796Z,30.51
2023-01-29T17:31:52.986Z,30.04
2023-01-29T19:56:01.755Z,31.52
2023-01-29T19:57:01.827Z,29.12
2023-01-29T19:58:01.872Z,29.12
2023-01-29T19:59:01.953Z,29.10
2023-01-29T20:00:02.006Z,30.07
2023-01-29T20:01:02.072Z,28.27
2023-01-29T20:02:02.152Z,29.34
2023-01-29T20:03:02.136Z,29.50
2023-01-29T20:04:02.233Z,27.61
2023-01-29T20:05:02.270Z,29.53
2023-01-29T20:06:02.326Z,28.72
2023-01-29T20:07:02.361Z,30.14
2023-01-29T20:08:02.437Z,28.25
2023-01-29T20:09:02.486Z,26.84
2023-01-29T20:10:02.524Z,27.00
2023-01-29T20:11:02.619Z,29.52
2023-01-29T20:12:02.652Z,31.34
2023-01-29T20:13:02.699Z,29.63
2023-01-29T20:14:02.776Z,31.68
2023-01-29T20:15:02.847Z,29.43
2023-01-29T20:16:02.919Z,30.30
2023-01-29T20:17:02.886Z,31.22
2023-01-29T20:18:02.902Z,27.94
2023-01-29T20:19:14.504Z,29.70
2023-01-29T20:20:03.977Z,29.89
2023-01-29T20:21:02.948Z,29.96
2023-01-29T20:22:02.920Z,30.86
2023-01-29T20:23:02.940Z,30.40
2023-01-29T20:24:02.917Z,29.31
2023-01-29T20:25:02.923Z,31.84
2023-01-29T20:26:02.907Z,30.06
2023-01-29T20:27:02.900Z,29.26
2023-01-29T20:28:02.926Z,29.13
2023-01-29T20:29:02.938Z,29.35
2023-01-29T20:30:02.988Z,28.81
2023-01-29T20:31:03.132Z,29.38
2023-01-29T20:32:03.094Z,30.80
2023-01-29T20:33:03.153Z,28.98
2023-01-29T20:34:03.216Z,29.84
2023-01-29T20:35:03.259Z,31.63
2023-01-29T20:36:03.316Z,28.65
2023-01-29T20:37:03.331Z,30.40
2023-01-29T20:38:03.414Z,28.42
2023-01-29T20:39:03.393Z,33.42
2023-01-29T20:40:03.462Z,28.83
2023-01-29T20:41:03.531Z,27.12
2023-01-29T20:42:03.531Z,29.17
2023-01-29T20:43:03.594Z,31.23
2023-01-29T20:44:03.634Z,28.07
2023-01-29T20:45:03.703Z,31.90
2023-01-29T20:46:03.829Z,29.78
2023-01-29T20:47:03.791Z,30.25
2023-01-29T20:48:03.822Z,30.41
2023-01-29T20:49:03.869Z,30.85
2023-01-29T20:50:03.934Z,30.32
2023-01-29T20:51:03.997Z,31.16
2023-01-29T20:52:04.085Z,29.20
2023-01-29T20:53:04.153Z,31.08
2023-01-29T20:54:04.211Z,27.72
2023-01-29T20:55:04.276Z,29.34
2023-01-29T20:56:04.771Z,29.02
2023-01-29T20:57:04.334Z,29.38
2023-01-29T20:58:06.402Z,29.90
2023-01-29T20:59:04.473Z,30.26
2023-01-29T21:00:04.457Z,29.34
2023-01-29T21:01:04.570Z,28.67
2023-01-29T21:02:04.674Z,25.99
2023-01-29T21:03:04.606Z,28.96
2023-01-29T21:04:04.685Z,26.90
2023-01-29T21:05:04.727Z,28.84
2023-01-29T21:06:04.811Z,32.62
2023-01-29T21:07:04.829Z,28.39
2023-01-29T21:08:04.849Z,28.68
2023-01-29T21:09:04.873Z,28.70
2023-01-29T21:10:04.928Z,27.82
2023-01-29T21:11:04.979Z,28.45
2023-01-29T21:12:04.991Z,27.51
2023-01-29T21:13:05.058Z,29.60
2023-01-29T21:14:05.080Z,30.08
2023-01-29T21:15:05.118Z,27.39
2023-01-29T21:16:05.175Z,27.30
2023-01-29T21:17:05.220Z,28.19
2023-01-29T21:18:05.297Z,28.03
2023-01-29T21:19:05.296Z,29.14
2023-01-29T21:20:05.347Z,29.52
2023-01-29T21:21:05.420Z,28.24
2023-01-29T21:22:05.429Z,26.15
2023-01-29T21:23:07.168Z,28.44
2023-01-29T21:24:05.488Z,29.57
2023-01-29T23:33:12.235Z,28.80
2023-01-29T23:34:11.803Z,28.93
2023-01-29T23:35:11.882Z,28.48
2023-01-29T23:36:11.897Z,28.11
2023-01-29T23:37:11.921Z,29.41
2023-01-29T23:38:11.988Z,30.66
2023-01-29T23:39:12.031Z,29.20
2023-01-29T23:40:12.051Z,30.09
2023-01-29T23:41:12.116Z,30.85
2023-01-29T23:42:12.166Z,29.01
2023-01-29T23:43:12.180Z,30.73
2023-01-29T23:44:12.291Z,27.60
2023-01-29T23:45:12.287Z,31.00
2023-01-29T23:46:12.373Z,29.87
2023-01-29T23:47:12.387Z,29.72
2023-01-29T23:48:12.400Z,29.59
2023-01-29T23:49:12.521Z,26.97
2023-01-29T23:50:12.572Z,29.86
2023-01-29T23:51:12.636Z,29.66
2023-01-29T23:52:12.657Z,31.98
2023-01-29T23:53:12.726Z,28.40
2023-01-29T23:54:12.800Z,28.67
2023-01-29T23:55:12.871Z,28.84
2023-01-29T23:56:12.888Z,29.47
2023-01-29T23:57:12.957Z,28.77
2023-01-29T23:58:12.983Z,28.26
2023-01-29T23:59:13.126Z,28.67
